sensor_id;sensor_type;location;lat;lon;timestamp;P1;durP1;ratioP1;P2;durP2;ratioP2
39896;SDS011;25567;48.276;14.242;2023-07-02T00:02:05;14.27;;;4.78;;
39896;SDS011;25567;48.276;14.242;2023-07-02T00:04:31;8.25;;;4.28;;
39896;SDS011;25567;48.276;14.242;2023-07-02T00:06:58;11.68;;;5.03;;
39896;SDS011;25567;48.276;14.242;2023-07-02T00:09:25;6.80;;;4.47;;
39896;SDS011;25567;48.276;14.242;2023-07-02T00:11:52;9.30;;;4.40;;
39896;SDS011;25567;48.276;14.242;2023-07-02T00:14:18;8.10;;;4.63;;
39896;SDS011;25567;48.276;14.242;2023-07-02T00:16:45;8.07;;;4.28;;
39896;SDS011;25567;48.276;14.242;2023-07-02T00:19:15;7.45;;;4.68;;
39896;SDS011;25567;48.276;14.242;2023-07-02T00:21:43;7.57;;;4.13;;
39896;SDS011;25567;48.276;14.242;2023-07-02T00:24:09;11.23;;;4.30;;
39896;SDS011;25567;48.276;14.242;2023-07-02T00:26:36;6.97;;;4.18;;
39896;SDS011;25567;48.276;14.242;2023-07-02T00:29:05;7.40;;;4.75;;
39896;SDS011;25567;48.276;14.242;2023-07-02T00:31:32;11.95;;;4.50;;
39896;SDS011;25567;48.276;14.242;2023-07-02T00:34:01;13.68;;;4.97;;
39896;SDS011;25567;48.276;14.242;2023-07-02T00:36:31;8.35;;;4.10;;
39896;SDS011;25567;48.276;14.242;2023-07-02T00:38:57;12.38;;;4.35;;
39896;SDS011;25567;48.276;14.242;2023-07-02T00:41:25;12.23;;;4.75;;
39896;SDS011;25567;48.276;14.242;2023-07-02T00:43:51;9.90;;;4.70;;
39896;SDS011;25567;48.276;14.242;2023-07-02T00:46:22;10.18;;;4.63;;
39896;SDS011;25567;48.276;14.242;2023-07-02T00:48:52;12.68;;;5.10;;
39896;SDS011;25567;48.276;14.242;2023-07-02T00:51:23;9.30;;;4.28;;
39896;SDS011;25567;48.276;14.242;2023-07-02T00:53:50;9.43;;;4.63;;
39896;SDS011;25567;48.276;14.242;2023-07-02T00:56:17;9.68;;;4.50;;
39896;SDS011;25567;48.276;14.242;2023-07-02T00:58:45;7.00;;;4.38;;
39896;SDS011;25567;48.276;14.242;2023-07-02T01:01:15;7.78;;;4.40;;
39896;SDS011;25567;48.276;14.242;2023-07-02T01:06:29;9.27;;;4.90;;
39896;SDS011;25567;48.276;14.242;2023-07-02T01:09:03;8.82;;;3.55;;
39896;SDS011;25567;48.276;14.242;2023-07-02T01:11:31;9.25;;;4.90;;
39896;SDS011;25567;48.276;14.242;2023-07-02T01:13:59;6.60;;;4.40;;
39896;SDS011;25567;48.276;14.242;2023-07-02T01:16:28;10.13;;;5.43;;
39896;SDS011;25567;48.276;14.242;2023-07-02T01:18:57;10.45;;;4.97;;
39896;SDS011;25567;48.276;14.242;2023-07-02T01:21:23;8.77;;;4.32;;
39896;SDS011;25567;48.276;14.242;2023-07-02T01:23:52;9.98;;;4.80;;
39896;SDS011;25567;48.276;14.242;2023-07-02T01:26:18;15.00;;;4.88;;
39896;SDS011;25567;48.276;14.242;2023-07-02T01:28:45;9.10;;;4.50;;
39896;SDS011;25567;48.276;14.242;2023-07-02T01:31:12;8.55;;;4.68;;
39896;SDS011;25567;48.276;14.242;2023-07-02T01:33:38;10.55;;;4.47;;
39896;SDS011;25567;48.276;14.242;2023-07-02T01:36:05;9.20;;;4.60;;
39896;SDS011;25567;48.276;14.242;2023-07-02T01:38:32;7.55;;;4.05;;
39896;SDS011;25567;48.276;14.242;2023-07-02T01:40:59;9.32;;;3.80;;
39896;SDS011;25567;48.276;14.242;2023-07-02T01:43:25;8.18;;;3.58;;
39896;SDS011;25567;48.276;14.242;2023-07-02T01:45:53;7.68;;;3.28;;
39896;SDS011;25567;48.276;14.242;2023-07-02T01:48:22;16.60;;;3.80;;
39896;SDS011;25567;48.276;14.242;2023-07-02T01:50:49;7.32;;;2.97;;
39896;SDS011;25567;48.276;14.242;2023-07-02T01:53:16;7.18;;;3.03;;
39896;SDS011;25567;48.276;14.242;2023-07-02T01:55:42;7.30;;;3.15;;
39896;SDS011;25567;48.276;14.242;2023-07-02T01:58:09;10.85;;;3.47;;
39896;SDS011;25567;48.276;14.242;2023-07-02T02:00:36;6.60;;;3.22;;
39896;SDS011;25567;48.276;14.242;2023-07-02T02:03:03;8.82;;;3.35;;
39896;SDS011;25567;48.276;14.242;2023-07-02T02:05:30;10.18;;;2.88;;
39896;SDS011;25567;48.276;14.242;2023-07-02T02:07:57;6.00;;;3.15;;
39896;SDS011;25567;48.276;14.242;2023-07-02T02:10:23;5.95;;;3.13;;
39896;SDS011;25567;48.276;14.242;2023-07-02T02:12:50;8.02;;;3.08;;
39896;SDS011;25567;48.276;14.242;2023-07-02T02:15:17;7.70;;;3.08;;
39896;SDS011;25567;48.276;14.242;2023-07-02T02:17:43;5.45;;;2.90;;
39896;SDS011;25567;48.276;14.242;2023-07-02T02:20:12;6.65;;;2.92;;
39896;SDS011;25567;48.276;14.242;2023-07-02T02:22:39;11.50;;;3.00;;
39896;SDS011;25567;48.276;14.242;2023-07-02T02:25:05;4.40;;;3.15;;
39896;SDS011;25567;48.276;14.242;2023-07-02T02:27:32;7.53;;;3.42;;
39896;SDS011;25567;48.276;14.242;2023-07-02T02:29:59;11.40;;;3.47;;
39896;SDS011;25567;48.276;14.242;2023-07-02T02:32:25;6.20;;;2.90;;
39896;SDS011;25567;48.276;14.242;2023-07-02T02:34:52;5.57;;;3.28;;
39896;SDS011;25567;48.276;14.242;2023-07-02T02:37:20;8.30;;;2.92;;
39896;SDS011;25567;48.276;14.242;2023-07-02T02:39:48;6.50;;;3.45;;
39896;SDS011;25567;48.276;14.242;2023-07-02T02:42:14;5.93;;;3.53;;
39896;SDS011;25567;48.276;14.242;2023-07-02T02:44:42;9.90;;;3.30;;
39896;SDS011;25567;48.276;14.242;2023-07-02T02:47:08;7.57;;;3.90;;
39896;SDS011;25567;48.276;14.242;2023-07-02T02:49:36;9.50;;;3.90;;
39896;SDS011;25567;48.276;14.242;2023-07-02T02:52:03;9.15;;;3.72;;
39896;SDS011;25567;48.276;14.242;2023-07-02T02:54:30;9.10;;;3.92;;
39896;SDS011;25567;48.276;14.242;2023-07-02T02:56:56;9.30;;;3.95;;
39896;SDS011;25567;48.276;14.242;2023-07-02T02:59:23;8.85;;;3.75;;
39896;SDS011;25567;48.276;14.242;2023-07-02T03:01:50;6.50;;;3.85;;
39896;SDS011;25567;48.276;14.242;2023-07-02T03:04:18;7.53;;;4.05;;
39896;SDS011;25567;48.276;14.242;2023-07-02T03:06:45;7.22;;;4.10;;
39896;SDS011;25567;48.276;14.242;2023-07-02T03:09:12;9.38;;;4.13;;
39896;SDS011;25567;48.276;14.242;2023-07-02T03:11:39;10.48;;;3.92;;
39896;SDS011;25567;48.276;14.242;2023-07-02T03:14:05;11.10;;;3.78;;
39896;SDS011;25567;48.276;14.242;2023-07-02T03:16:32;11.40;;;4.50;;
39896;SDS011;25567;48.276;14.242;2023-07-02T03:19:00;5.97;;;3.83;;
39896;SDS011;25567;48.276;14.242;2023-07-02T03:21:26;8.35;;;4.22;;
39896;SDS011;25567;48.276;14.242;2023-07-02T03:23:53;11.50;;;4.35;;
39896;SDS011;25567;48.276;14.242;2023-07-02T03:26:19;6.80;;;4.00;;
39896;SDS011;25567;48.276;14.242;2023-07-02T03:28:46;10.48;;;4.32;;
39896;SDS011;25567;48.276;14.242;2023-07-02T03:31:13;11.18;;;4.45;;
39896;SDS011;25567;48.276;14.242;2023-07-02T03:33:40;8.85;;;4.07;;
39896;SDS011;25567;48.276;14.242;2023-07-02T03:36:07;7.25;;;3.58;;
39896;SDS011;25567;48.276;14.242;2023-07-02T03:38:34;6.95;;;4.05;;
39896;SDS011;25567;48.276;14.242;2023-07-02T03:41:01;5.75;;;3.75;;
39896;SDS011;25567;48.276;14.242;2023-07-02T03:43:27;10.05;;;4.40;;
39896;SDS011;25567;48.276;14.242;2023-07-02T03:45:54;5.97;;;3.92;;
39896;SDS011;25567;48.276;14.242;2023-07-02T03:48:20;6.13;;;3.67;;
39896;SDS011;25567;48.276;14.242;2023-07-02T03:50:47;7.60;;;3.80;;
39896;SDS011;25567;48.276;14.242;2023-07-02T03:53:14;9.95;;;3.85;;
39896;SDS011;25567;48.276;14.242;2023-07-02T03:55:41;8.30;;;4.10;;
39896;SDS011;25567;48.276;14.242;2023-07-02T03:58:07;9.48;;;3.95;;
39896;SDS011;25567;48.276;14.242;2023-07-02T04:00:34;8.88;;;3.97;;
39896;SDS011;25567;48.276;14.242;2023-07-02T04:03:01;9.65;;;4.30;;
39896;SDS011;25567;48.276;14.242;2023-07-02T04:05:28;8.63;;;4.22;;
39896;SDS011;25567;48.276;14.242;2023-07-02T04:07:55;6.35;;;4.03;;
39896;SDS011;25567;48.276;14.242;2023-07-02T04:10:22;7.38;;;3.95;;
39896;SDS011;25567;48.276;14.242;2023-07-02T04:12:48;8.27;;;3.90;;
39896;SDS011;25567;48.276;14.242;2023-07-02T04:15:15;7.53;;;3.97;;
39896;SDS011;25567;48.276;14.242;2023-07-02T04:17:42;5.97;;;3.88;;
39896;SDS011;25567;48.276;14.242;2023-07-02T04:20:08;7.15;;;4.35;;
39896;SDS011;25567;48.276;14.242;2023-07-02T04:22:36;10.98;;;4.07;;
39896;SDS011;25567;48.276;14.242;2023-07-02T04:25:03;9.60;;;4.30;;
39896;SDS011;25567;48.276;14.242;2023-07-02T04:27:39;8.60;;;4.10;;
39896;SDS011;25567;48.276;14.242;2023-07-02T04:30:16;8.27;;;4.05;;
39896;SDS011;25567;48.276;14.242;2023-07-02T04:32:43;10.20;;;4.32;;
39896;SDS011;25567;48.276;14.242;2023-07-02T04:35:10;4.75;;;3.38;;
39896;SDS011;25567;48.276;14.242;2023-07-02T04:37:37;9.55;;;4.32;;
39896;SDS011;25567;48.276;14.242;2023-07-02T04:40:05;8.40;;;3.92;;
39896;SDS011;25567;48.276;14.242;2023-07-02T04:42:39;5.95;;;3.83;;
39896;SDS011;25567;48.276;14.242;2023-07-02T04:45:06;8.10;;;4.53;;
39896;SDS011;25567;48.276;14.242;2023-07-02T04:47:34;6.55;;;4.30;;
39896;SDS011;25567;48.276;14.242;2023-07-02T04:50:01;10.15;;;3.58;;
39896;SDS011;25567;48.276;14.242;2023-07-02T04:52:28;7.10;;;3.55;;
39896;SDS011;25567;48.276;14.242;2023-07-02T04:54:55;8.27;;;3.85;;
39896;SDS011;25567;48.276;14.242;2023-07-02T04:57:22;7.30;;;3.83;;
39896;SDS011;25567;48.276;14.242;2023-07-02T04:59:49;6.03;;;3.95;;
39896;SDS011;25567;48.276;14.242;2023-07-02T05:02:15;8.25;;;3.75;;
39896;SDS011;25567;48.276;14.242;2023-07-02T05:04:42;7.53;;;3.92;;
39896;SDS011;25567;48.276;14.242;2023-07-02T05:07:09;8.77;;;3.80;;
39896;SDS011;25567;48.276;14.242;2023-07-02T05:09:35;5.95;;;3.65;;
39896;SDS011;25567;48.276;14.242;2023-07-02T05:12:02;6.43;;;3.97;;
39896;SDS011;25567;48.276;14.242;2023-07-02T05:14:29;8.13;;;3.55;;
39896;SDS011;25567;48.276;14.242;2023-07-02T05:16:55;7.63;;;3.97;;
39896;SDS011;25567;48.276;14.242;2023-07-02T05:19:22;7.32;;;3.63;;
39896;SDS011;25567;48.276;14.242;2023-07-02T05:21:48;14.93;;;3.70;;
39896;SDS011;25567;48.276;14.242;2023-07-02T05:24:15;7.45;;;3.75;;
39896;SDS011;25567;48.276;14.242;2023-07-02T05:26:42;5.60;;;3.15;;
39896;SDS011;25567;48.276;14.242;2023-07-02T05:29:09;5.85;;;3.70;;
39896;SDS011;25567;48.276;14.242;2023-07-02T05:31:36;10.30;;;3.78;;
39896;SDS011;25567;48.276;14.242;2023-07-02T05:34:02;6.25;;;3.47;;
39896;SDS011;25567;48.276;14.242;2023-07-02T05:36:29;6.13;;;3.10;;
39896;SDS011;25567;48.276;14.242;2023-07-02T05:38:55;5.38;;;3.40;;
39896;SDS011;25567;48.276;14.242;2023-07-02T05:41:22;9.57;;;3.38;;
39896;SDS011;25567;48.276;14.242;2023-07-02T05:43:49;9.60;;;3.53;;
39896;SDS011;25567;48.276;14.242;2023-07-02T05:46:16;6.05;;;3.40;;
39896;SDS011;25567;48.276;14.242;2023-07-02T05:48:42;7.47;;;3.10;;
39896;SDS011;25567;48.276;14.242;2023-07-02T05:51:09;4.88;;;3.00;;
39896;SDS011;25567;48.276;14.242;2023-07-02T05:53:37;6.25;;;2.88;;
39896;SDS011;25567;48.276;14.242;2023-07-02T05:56:03;4.53;;;2.75;;
39896;SDS011;25567;48.276;14.242;2023-07-02T05:58:30;4.85;;;3.13;;
39896;SDS011;25567;48.276;14.242;2023-07-02T06:01:15;10.65;;;3.60;;
39896;SDS011;25567;48.276;14.242;2023-07-02T06:03:42;6.40;;;2.97;;
39896;SDS011;25567;48.276;14.242;2023-07-02T06:06:10;5.05;;;2.63;;
39896;SDS011;25567;48.276;14.242;2023-07-02T06:08:37;4.50;;;2.85;;
39896;SDS011;25567;48.276;14.242;2023-07-02T06:11:04;8.65;;;3.10;;
39896;SDS011;25567;48.276;14.242;2023-07-02T06:13:31;6.30;;;2.75;;
39896;SDS011;25567;48.276;14.242;2023-07-02T06:15:57;4.43;;;3.08;;
39896;SDS011;25567;48.276;14.242;2023-07-02T06:18:24;7.13;;;3.22;;
39896;SDS011;25567;48.276;14.242;2023-07-02T06:20:51;9.40;;;3.53;;
39896;SDS011;25567;48.276;14.242;2023-07-02T06:23:19;5.75;;;3.28;;
39896;SDS011;25567;48.276;14.242;2023-07-02T06:25:46;5.70;;;3.60;;
39896;SDS011;25567;48.276;14.242;2023-07-02T06:28:12;6.22;;;3.55;;
39896;SDS011;25567;48.276;14.242;2023-07-02T06:30:39;7.20;;;3.47;;
39896;SDS011;25567;48.276;14.242;2023-07-02T06:33:06;8.18;;;3.45;;
39896;SDS011;25567;48.276;14.242;2023-07-02T06:35:32;6.18;;;3.47;;
39896;SDS011;25567;48.276;14.242;2023-07-02T06:37:59;6.78;;;3.50;;
39896;SDS011;25567;48.276;14.242;2023-07-02T06:40:25;5.93;;;3.55;;
39896;SDS011;25567;48.276;14.242;2023-07-02T06:42:52;6.50;;;3.28;;
39896;SDS011;25567;48.276;14.242;2023-07-02T06:45:19;4.43;;;3.15;;
39896;SDS011;25567;48.276;14.242;2023-07-02T06:47:46;5.93;;;4.03;;
39896;SDS011;25567;48.276;14.242;2023-07-02T06:50:13;7.18;;;3.53;;
39896;SDS011;25567;48.276;14.242;2023-07-02T06:52:40;5.60;;;2.92;;
39896;SDS011;25567;48.276;14.242;2023-07-02T06:55:06;4.47;;;3.03;;
39896;SDS011;25567;48.276;14.242;2023-07-02T06:57:33;4.43;;;2.55;;
39896;SDS011;25567;48.276;14.242;2023-07-02T07:00:00;5.43;;;3.05;;
39896;SDS011;25567;48.276;14.242;2023-07-02T07:02:27;8.63;;;3.15;;
39896;SDS011;25567;48.276;14.242;2023-07-02T07:04:54;9.02;;;2.90;;
39896;SDS011;25567;48.276;14.242;2023-07-02T07:07:21;5.18;;;2.53;;
39896;SDS011;25567;48.276;14.242;2023-07-02T07:09:47;3.88;;;2.60;;
39896;SDS011;25567;48.276;14.242;2023-07-02T07:12:14;4.05;;;2.88;;
39896;SDS011;25567;48.276;14.242;2023-07-02T07:14:41;5.82;;;2.80;;
39896;SDS011;25567;48.276;14.242;2023-07-02T07:17:08;4.75;;;2.75;;
39896;SDS011;25567;48.276;14.242;2023-07-02T07:19:36;4.65;;;2.80;;
39896;SDS011;25567;48.276;14.242;2023-07-02T07:22:02;5.28;;;2.85;;
39896;SDS011;25567;48.276;14.242;2023-07-02T07:24:29;5.38;;;2.88;;
39896;SDS011;25567;48.276;14.242;2023-07-02T07:26:56;6.72;;;2.85;;
39896;SDS011;25567;48.276;14.242;2023-07-02T07:29:22;4.68;;;2.70;;
39896;SDS011;25567;48.276;14.242;2023-07-02T07:31:49;6.60;;;2.88;;
39896;SDS011;25567;48.276;14.242;2023-07-02T07:34:17;5.07;;;2.50;;
39896;SDS011;25567;48.276;14.242;2023-07-02T07:36:43;5.30;;;2.70;;
39896;SDS011;25567;48.276;14.242;2023-07-02T07:39:10;6.30;;;3.05;;
39896;SDS011;25567;48.276;14.242;2023-07-02T07:41:37;4.32;;;2.70;;
39896;SDS011;25567;48.276;14.242;2023-07-02T07:44:03;4.70;;;3.00;;
39896;SDS011;25567;48.276;14.242;2023-07-02T07:46:30;4.78;;;2.58;;
39896;SDS011;25567;48.276;14.242;2023-07-02T07:48:57;5.82;;;3.15;;
39896;SDS011;25567;48.276;14.242;2023-07-02T07:51:29;4.50;;;2.67;;
39896;SDS011;25567;48.276;14.242;2023-07-02T07:53:56;4.35;;;2.35;;
39896;SDS011;25567;48.276;14.242;2023-07-02T07:56:25;7.20;;;2.88;;
39896;SDS011;25567;48.276;14.242;2023-07-02T07:58:51;4.50;;;2.70;;
39896;SDS011;25567;48.276;14.242;2023-07-02T08:01:18;3.63;;;2.28;;
39896;SDS011;25567;48.276;14.242;2023-07-02T08:03:45;5.53;;;2.50;;
39896;SDS011;25567;48.276;14.242;2023-07-02T08:06:11;4.70;;;2.17;;
39896;SDS011;25567;48.276;14.242;2023-07-02T08:08:38;5.13;;;2.40;;
39896;SDS011;25567;48.276;14.242;2023-07-02T08:11:05;8.05;;;1.92;;
39896;SDS011;25567;48.276;14.242;2023-07-02T08:13:34;7.40;;;2.10;;
39896;SDS011;25567;48.276;14.242;2023-07-02T08:16:01;4.07;;;2.00;;
39896;SDS011;25567;48.276;14.242;2023-07-02T08:18:28;3.03;;;1.77;;
39896;SDS011;25567;48.276;14.242;2023-07-02T08:20:56;3.08;;;1.92;;
39896;SDS011;25567;48.276;14.242;2023-07-02T08:23:23;4.55;;;2.10;;
39896;SDS011;25567;48.276;14.242;2023-07-02T08:25:52;3.55;;;2.05;;
39896;SDS011;25567;48.276;14.242;2023-07-02T08:28:18;5.13;;;2.25;;
39896;SDS011;25567;48.276;14.242;2023-07-02T08:30:45;3.50;;;2.33;;
39896;SDS011;25567;48.276;14.242;2023-07-02T08:33:13;6.38;;;1.98;;
39896;SDS011;25567;48.276;14.242;2023-07-02T08:35:43;3.65;;;1.92;;
39896;SDS011;25567;48.276;14.242;2023-07-02T08:38:09;6.15;;;1.90;;
39896;SDS011;25567;48.276;14.242;2023-07-02T08:40:36;3.08;;;1.70;;
39896;SDS011;25567;48.276;14.242;2023-07-02T08:43:03;5.00;;;2.10;;
39896;SDS011;25567;48.276;14.242;2023-07-02T08:45:40;3.85;;;2.03;;
39896;SDS011;25567;48.276;14.242;2023-07-02T08:48:07;7.28;;;2.20;;
39896;SDS011;25567;48.276;14.242;2023-07-02T08:50:34;6.35;;;2.00;;
39896;SDS011;25567;48.276;14.242;2023-07-02T08:53:04;2.05;;;1.40;;
39896;SDS011;25567;48.276;14.242;2023-07-02T08:55:31;7.38;;;2.22;;
39896;SDS011;25567;48.276;14.242;2023-07-02T08:57:57;3.17;;;1.50;;
39896;SDS011;25567;48.276;14.242;2023-07-02T09:00:28;3.60;;;2.03;;
39896;SDS011;25567;48.276;14.242;2023-07-02T09:02:57;5.13;;;1.83;;
39896;SDS011;25567;48.276;14.242;2023-07-02T09:05:24;8.70;;;2.28;;
39896;SDS011;25567;48.276;14.242;2023-07-02T09:07:53;3.83;;;1.98;;
39896;SDS011;25567;48.276;14.242;2023-07-02T09:13:06;5.72;;;2.17;;
39896;SDS011;25567;48.276;14.242;2023-07-02T09:15:37;4.20;;;1.95;;
39896;SDS011;25567;48.276;14.242;2023-07-02T09:18:17;3.20;;;1.75;;
39896;SDS011;25567;48.276;14.242;2023-07-02T09:20:44;3.88;;;2.03;;
39896;SDS011;25567;48.276;14.242;2023-07-02T09:23:15;3.85;;;1.75;;
39896;SDS011;25567;48.276;14.242;2023-07-02T09:25:41;5.05;;;1.73;;
39896;SDS011;25567;48.276;14.242;2023-07-02T09:28:23;4.88;;;1.98;;
39896;SDS011;25567;48.276;14.242;2023-07-02T09:30:51;3.78;;;2.28;;
39896;SDS011;25567;48.276;14.242;2023-07-02T09:33:24;2.70;;;1.92;;
39896;SDS011;25567;48.276;14.242;2023-07-02T09:40:53;5.18;;;1.77;;
39896;SDS011;25567;48.276;14.242;2023-07-02T09:43:19;6.00;;;2.38;;
39896;SDS011;25567;48.276;14.242;2023-07-02T09:45:47;5.10;;;2.20;;
39896;SDS011;25567;48.276;14.242;2023-07-02T09:48:15;5.07;;;2.15;;
39896;SDS011;25567;48.276;14.242;2023-07-02T09:50:47;5.40;;;2.50;;
39896;SDS011;25567;48.276;14.242;2023-07-02T09:53:15;8.68;;;2.15;;
39896;SDS011;25567;48.276;14.242;2023-07-02T09:55:42;4.75;;;2.20;;
39896;SDS011;25567;48.276;14.242;2023-07-02T09:58:09;6.68;;;2.05;;
39896;SDS011;25567;48.276;14.242;2023-07-02T10:00:37;5.40;;;2.00;;
39896;SDS011;25567;48.276;14.242;2023-07-02T10:03:04;5.88;;;2.28;;
39896;SDS011;25567;48.276;14.242;2023-07-02T10:05:31;6.88;;;2.25;;
39896;SDS011;25567;48.276;14.242;2023-07-02T10:07:59;3.58;;;2.08;;
39896;SDS011;25567;48.276;14.242;2023-07-02T10:10:37;5.32;;;2.20;;
39896;SDS011;25567;48.276;14.242;2023-07-02T10:13:04;5.57;;;2.33;;
39896;SDS011;25567;48.276;14.242;2023-07-02T10:15:31;7.38;;;2.42;;
39896;SDS011;25567;48.276;14.242;2023-07-02T10:18:01;4.60;;;2.40;;
39896;SDS011;25567;48.276;14.242;2023-07-02T10:20:40;6.75;;;2.75;;
39896;SDS011;25567;48.276;14.242;2023-07-02T10:23:08;3.90;;;2.17;;
39896;SDS011;25567;48.276;14.242;2023-07-02T10:25:36;7.15;;;2.55;;
39896;SDS011;25567;48.276;14.242;2023-07-02T10:28:17;5.63;;;2.65;;
39896;SDS011;25567;48.276;14.242;2023-07-02T10:30:47;7.93;;;2.78;;
39896;SDS011;25567;48.276;14.242;2023-07-02T10:33:15;12.13;;;2.80;;
39896;SDS011;25567;48.276;14.242;2023-07-02T10:35:43;14.85;;;2.80;;
39896;SDS011;25567;48.276;14.242;2023-07-02T10:38:15;4.50;;;2.40;;
39896;SDS011;25567;48.276;14.242;2023-07-02T10:40:42;7.28;;;2.80;;
39896;SDS011;25567;48.276;14.242;2023-07-02T10:43:09;16.83;;;3.08;;
39896;SDS011;25567;48.276;14.242;2023-07-02T10:45:36;8.55;;;2.60;;
39896;SDS011;25567;48.276;14.242;2023-07-02T10:48:03;6.47;;;3.10;;
39896;SDS011;25567;48.276;14.242;2023-07-02T10:50:35;5.15;;;2.40;;
39896;SDS011;25567;48.276;14.242;2023-07-02T10:53:03;5.57;;;2.55;;
39896;SDS011;25567;48.276;14.242;2023-07-02T10:55:30;6.38;;;2.75;;
39896;SDS011;25567;48.276;14.242;2023-07-02T10:58:05;5.38;;;2.45;;
39896;SDS011;25567;48.276;14.242;2023-07-02T11:00:50;9.07;;;2.80;;
39896;SDS011;25567;48.276;14.242;2023-07-02T11:03:23;8.00;;;2.65;;
39896;SDS011;25567;48.276;14.242;2023-07-02T11:05:50;5.55;;;2.53;;
39896;SDS011;25567;48.276;14.242;2023-07-02T11:08:18;5.82;;;2.78;;
39896;SDS011;25567;48.276;14.242;2023-07-02T11:10:46;12.07;;;3.58;;
39896;SDS011;25567;48.276;14.242;2023-07-02T11:13:16;10.25;;;3.05;;
39896;SDS011;25567;48.276;14.242;2023-07-02T11:15:43;4.75;;;2.65;;
39896;SDS011;25567;48.276;14.242;2023-07-02T11:18:16;4.40;;;2.15;;
39896;SDS011;25567;48.276;14.242;2023-07-02T11:20:44;10.15;;;2.78;;
39896;SDS011;25567;48.276;14.242;2023-07-02T11:25:53;7.38;;;3.25;;
39896;SDS011;25567;48.276;14.242;2023-07-02T11:28:20;6.35;;;2.67;;
39896;SDS011;25567;48.276;14.242;2023-07-02T11:30:46;6.57;;;2.80;;
39896;SDS011;25567;48.276;14.242;2023-07-02T11:33:17;5.45;;;2.30;;
39896;SDS011;25567;48.276;14.242;2023-07-02T11:35:47;6.47;;;2.60;;
39896;SDS011;25567;48.276;14.242;2023-07-02T11:38:14;5.05;;;2.60;;
39896;SDS011;25567;48.276;14.242;2023-07-02T11:40:42;5.80;;;2.50;;
39896;SDS011;25567;48.276;14.242;2023-07-02T11:43:08;4.13;;;2.40;;
39896;SDS011;25567;48.276;14.242;2023-07-02T11:45:35;5.57;;;2.40;;
39896;SDS011;25567;48.276;14.242;2023-07-02T11:48:02;6.32;;;2.60;;
39896;SDS011;25567;48.276;14.242;2023-07-02T11:50:30;9.38;;;3.03;;
39896;SDS011;25567;48.276;14.242;2023-07-02T11:52:56;5.53;;;2.30;;
39896;SDS011;25567;48.276;14.242;2023-07-02T11:55:24;4.47;;;2.47;;
39896;SDS011;25567;48.276;14.242;2023-07-02T11:57:51;10.38;;;2.60;;
39896;SDS011;25567;48.276;14.242;2023-07-02T12:00:18;3.78;;;2.17;;
39896;SDS011;25567;48.276;14.242;2023-07-02T12:02:45;6.10;;;2.22;;
39896;SDS011;25567;48.276;14.242;2023-07-02T12:05:12;5.00;;;2.20;;
39896;SDS011;25567;48.276;14.242;2023-07-02T12:07:39;3.80;;;1.90;;
39896;SDS011;25567;48.276;14.242;2023-07-02T12:10:10;3.08;;;1.92;;
39896;SDS011;25567;48.276;14.242;2023-07-02T12:12:40;5.03;;;2.45;;
39896;SDS011;25567;48.276;14.242;2023-07-02T12:15:14;7.75;;;1.98;;
39896;SDS011;25567;48.276;14.242;2023-07-02T12:17:43;7.57;;;1.98;;
39896;SDS011;25567;48.276;14.242;2023-07-02T12:20:10;8.40;;;3.08;;
39896;SDS011;25567;48.276;14.242;2023-07-02T12:22:37;5.30;;;2.55;;
39896;SDS011;25567;48.276;14.242;2023-07-02T12:25:04;5.30;;;2.72;;
39896;SDS011;25567;48.276;14.242;2023-07-02T12:27:31;8.48;;;2.30;;
39896;SDS011;25567;48.276;14.242;2023-07-02T12:29:58;6.03;;;2.20;;
39896;SDS011;25567;48.276;14.242;2023-07-02T12:32:25;7.50;;;2.40;;
39896;SDS011;25567;48.276;14.242;2023-07-02T12:34:52;4.88;;;2.20;;
39896;SDS011;25567;48.276;14.242;2023-07-02T12:37:21;5.82;;;2.72;;
39896;SDS011;25567;48.276;14.242;2023-07-02T12:39:48;4.90;;;2.40;;
39896;SDS011;25567;48.276;14.242;2023-07-02T12:42:15;6.65;;;2.45;;
39896;SDS011;25567;48.276;14.242;2023-07-02T12:44:42;5.05;;;2.38;;
39896;SDS011;25567;48.276;14.242;2023-07-02T12:47:09;5.07;;;2.15;;
39896;SDS011;25567;48.276;14.242;2023-07-02T12:49:35;8.02;;;2.15;;
39896;SDS011;25567;48.276;14.242;2023-07-02T12:52:02;4.78;;;2.00;;
39896;SDS011;25567;48.276;14.242;2023-07-02T12:54:29;10.75;;;2.67;;
39896;SDS011;25567;48.276;14.242;2023-07-02T12:56:57;5.00;;;2.30;;
39896;SDS011;25567;48.276;14.242;2023-07-02T12:59:23;6.70;;;2.45;;
39896;SDS011;25567;48.276;14.242;2023-07-02T13:01:50;4.70;;;2.42;;
39896;SDS011;25567;48.276;14.242;2023-07-02T13:04:17;6.05;;;2.67;;
39896;SDS011;25567;48.276;14.242;2023-07-02T13:06:44;6.28;;;2.63;;
39896;SDS011;25567;48.276;14.242;2023-07-02T13:09:12;6.43;;;2.75;;
39896;SDS011;25567;48.276;14.242;2023-07-02T13:11:38;4.57;;;2.47;;
39896;SDS011;25567;48.276;14.242;2023-07-02T13:14:05;6.85;;;2.30;;
39896;SDS011;25567;48.276;14.242;2023-07-02T13:16:32;4.82;;;2.60;;
39896;SDS011;25567;48.276;14.242;2023-07-02T13:18:58;6.72;;;3.20;;
39896;SDS011;25567;48.276;14.242;2023-07-02T13:21:28;6.75;;;3.30;;
39896;SDS011;25567;48.276;14.242;2023-07-02T13:23:55;6.53;;;2.60;;
39896;SDS011;25567;48.276;14.242;2023-07-02T13:26:21;5.00;;;2.80;;
39896;SDS011;25567;48.276;14.242;2023-07-02T13:28:48;5.00;;;2.33;;
39896;SDS011;25567;48.276;14.242;2023-07-02T13:31:15;7.53;;;2.45;;
39896;SDS011;25567;48.276;14.242;2023-07-02T13:33:42;7.85;;;2.15;;
39896;SDS011;25567;48.276;14.242;2023-07-02T13:36:09;4.93;;;2.47;;
39896;SDS011;25567;48.276;14.242;2023-07-02T13:38:36;4.97;;;2.63;;
39896;SDS011;25567;48.276;14.242;2023-07-02T13:41:02;8.80;;;3.13;;
39896;SDS011;25567;48.276;14.242;2023-07-02T13:43:29;5.68;;;3.00;;
39896;SDS011;25567;48.276;14.242;2023-07-02T13:45:56;5.45;;;3.17;;
39896;SDS011;25567;48.276;14.242;2023-07-02T13:48:23;5.63;;;3.42;;
39896;SDS011;25567;48.276;14.242;2023-07-02T13:50:52;8.00;;;3.55;;
39896;SDS011;25567;48.276;14.242;2023-07-02T13:53:20;8.93;;;3.47;;
39896;SDS011;25567;48.276;14.242;2023-07-02T13:55:46;14.68;;;4.28;;
39896;SDS011;25567;48.276;14.242;2023-07-02T13:58:13;8.55;;;3.78;;
39896;SDS011;25567;48.276;14.242;2023-07-02T14:00:54;9.82;;;3.75;;
39896;SDS011;25567;48.276;14.242;2023-07-02T14:03:20;7.63;;;3.72;;
39896;SDS011;25567;48.276;14.242;2023-07-02T14:05:47;7.78;;;3.55;;
39896;SDS011;25567;48.276;14.242;2023-07-02T14:08:16;8.98;;;4.30;;
39896;SDS011;25567;48.276;14.242;2023-07-02T14:10:42;7.15;;;4.22;;
39896;SDS011;25567;48.276;14.242;2023-07-02T14:13:09;13.05;;;4.70;;
39896;SDS011;25567;48.276;14.242;2023-07-02T14:15:36;15.13;;;4.85;;
39896;SDS011;25567;48.276;14.242;2023-07-02T14:18:02;10.52;;;4.45;;
39896;SDS011;25567;48.276;14.242;2023-07-02T14:20:29;15.50;;;4.85;;
39896;SDS011;25567;48.276;14.242;2023-07-02T14:22:56;13.95;;;4.25;;
39896;SDS011;25567;48.276;14.242;2023-07-02T14:25:22;11.48;;;4.40;;
39896;SDS011;25567;48.276;14.242;2023-07-02T14:28:06;9.18;;;4.20;;
39896;SDS011;25567;48.276;14.242;2023-07-02T14:30:33;10.48;;;4.40;;
39896;SDS011;25567;48.276;14.242;2023-07-02T14:33:00;8.00;;;4.65;;
39896;SDS011;25567;48.276;14.242;2023-07-02T14:35:26;11.02;;;4.93;;
39896;SDS011;25567;48.276;14.242;2023-07-02T14:37:54;12.45;;;4.43;;
39896;SDS011;25567;48.276;14.242;2023-07-02T14:40:21;8.38;;;4.13;;
39896;SDS011;25567;48.276;14.242;2023-07-02T14:42:48;9.18;;;4.20;;
39896;SDS011;25567;48.276;14.242;2023-07-02T14:45:15;17.45;;;4.57;;
39896;SDS011;25567;48.276;14.242;2023-07-02T14:47:42;10.63;;;4.65;;
39896;SDS011;25567;48.276;14.242;2023-07-02T14:50:08;13.88;;;4.25;;